createdAt,value
2018-12-03T00:00:02.525Z,13.08
2018-12-03T00:01:02.704Z,13.12
2018-12-03T00:02:02.879Z,13.05
2018-12-03T00:03:03.055Z,13.15
2018-12-03T00:04:03.237Z,13.13
2018-12-03T00:05:03.423Z,13.22
2018-12-03T00:06:03.597Z,13.20
2018-12-03T00:07:03.776Z,13.22
2018-12-03T00:08:03.952Z,13.13
2018-12-03T00:09:04.132Z,13.39
2018-12-03T00:10:04.309Z,13.23
2018-12-03T00:11:04.484Z,13.28
2018-12-03T00:12:04.665Z,13.27
2018-12-03T00:13:04.838Z,13.27
2018-12-03T00:14:05.018Z,13.27
2018-12-03T00:15:05.244Z,13.27
2018-12-03T00:16:05.375Z,13.27
2018-12-03T00:17:05.554Z,13.12
2018-12-03T00:18:05.728Z,13.08
2018-12-03T00:19:05.914Z,13.03
2018-12-03T00:20:06.077Z,13.16
2018-12-03T00:21:06.256Z,13.09
2018-12-03T00:22:06.434Z,13.16
2018-12-03T00:23:06.610Z,13.15
2018-12-03T00:24:06.797Z,13.13
2018-12-03T00:25:06.966Z,13.13
2018-12-03T00:26:07.145Z,13.09
2018-12-03T00:27:07.322Z,13.18
2018-12-03T00:28:07.503Z,13.15
2018-12-03T00:29:07.672Z,13.16
2018-12-03T00:30:07.848Z,13.20
2018-12-03T00:31:08.040Z,13.13
2018-12-03T00:32:08.210Z,13.16
2018-12-03T00:33:08.388Z,13.19
2018-12-03T00:34:08.579Z,13.18
2018-12-03T00:35:08.742Z,13.18
2018-12-03T00:36:08.917Z,13.18
2018-12-03T00:37:09.101Z,13.12
2018-12-03T00:38:09.265Z,13.13
2018-12-03T00:39:09.445Z,13.18
2018-12-03T00:40:09.622Z,13.15
2018-12-03T00:41:09.798Z,13.11
2018-12-03T00:42:09.974Z,13.20
2018-12-03T00:43:10.155Z,13.03
2018-12-03T00:44:10.331Z,13.05
2018-12-03T00:45:10.503Z,13.01
2018-12-03T00:46:10.690Z,12.98
2018-12-03T00:47:10.856Z,13.00
2018-12-03T00:48:11.027Z,12.97
2018-12-03T00:49:11.209Z,12.94
2018-12-03T00:50:11.388Z,13.00
2018-12-03T00:51:11.567Z,12.98
2018-12-03T00:52:11.736Z,13.00
2018-12-03T00:53:11.915Z,12.91
2018-12-03T00:54:12.089Z,12.85
2018-12-03T00:55:12.268Z,12.83
2018-12-03T00:56:12.437Z,12.93
2018-12-03T00:57:12.618Z,12.82
2018-12-03T00:58:12.798Z,12.90
2018-12-03T00:59:12.968Z,12.95
2018-12-03T01:00:13.145Z,12.91
2018-12-03T01:01:13.320Z,12.93
2018-12-03T01:02:13.498Z,12.94
2018-12-03T01:03:13.676Z,12.91
2018-12-03T01:04:13.852Z,12.87
2018-12-03T01:05:14.030Z,12.87
2018-12-03T01:07:14.375Z,12.91
2018-12-03T01:08:14.550Z,12.87
2018-12-03T01:09:14.738Z,12.85
2018-12-03T01:10:14.904Z,12.85
2018-12-03T01:11:15.088Z,12.83
2018-12-03T01:12:15.253Z,12.87
2018-12-03T01:13:15.428Z,12.95
2018-12-03T01:15:15.774Z,12.95
2018-12-03T01:16:15.948Z,13.01
2018-12-03T01:17:16.124Z,12.98
2018-12-03T01:18:16.311Z,12.95
2018-12-03T01:19:16.481Z,12.93
2018-12-03T01:20:16.658Z,12.94
2018-12-03T01:21:16.835Z,12.91
2018-12-03T01:22:17.007Z,12.93
2018-12-03T01:23:17.191Z,12.93
2018-12-03T01:24:17.358Z,12.87
2018-12-03T01:25:17.538Z,12.93
2018-12-03T01:26:17.705Z,12.86
2018-12-03T01:27:17.881Z,12.82
2018-12-03T01:28:18.057Z,12.85
2018-12-03T01:29:18.234Z,12.85
2018-12-03T01:30:18.410Z,12.78
2018-12-03T01:31:18.585Z,12.85
2018-12-03T01:32:18.763Z,12.73
2018-12-03T01:33:18.936Z,12.78
2018-12-03T01:34:19.117Z,12.82
2018-12-03T01:35:19.291Z,12.82
2018-12-03T01:36:19.460Z,12.73
2018-12-03T01:37:19.644Z,12.75
2018-12-03T01:38:19.822Z,12.82
2018-12-03T01:39:20.001Z,12.75
2018-12-03T01:40:20.176Z,12.73
2018-12-03T01:41:20.348Z,12.75
2018-12-03T01:42:20.524Z,12.75
2018-12-03T01:43:20.693Z,12.83
2018-12-03T01:44:20.872Z,12.78
2018-12-03T01:45:21.046Z,12.73
2018-12-03T01:46:21.225Z,12.73
2018-12-03T01:47:21.400Z,12.62
2018-12-03T01:48:21.577Z,12.64
2018-12-03T01:49:21.761Z,12.65
2018-12-03T01:50:21.939Z,12.68
2018-12-03T01:51:22.114Z,12.72
2018-12-03T01:52:22.289Z,12.62
2018-12-03T01:53:22.465Z,12.68
2018-12-03T01:54:22.640Z,12.67
2018-12-03T01:55:22.839Z,12.65
2018-12-03T01:56:23.020Z,12.57
2018-12-03T01:57:23.182Z,12.55
2018-12-03T01:58:23.367Z,12.57
2018-12-03T01:59:23.542Z,12.64
2018-12-03T02:00:23.724Z,12.60
2018-12-03T02:01:23.896Z,12.60
2018-12-03T02:02:24.071Z,12.67
2018-12-03T02:03:24.249Z,12.68
2018-12-03T02:04:24.425Z,12.68
2018-12-03T02:05:24.601Z,12.62
2018-12-03T02:06:24.783Z,12.65
2018-12-03T02:07:24.947Z,12.60
2018-12-03T02:08:25.121Z,12.67
2018-12-03T02:09:25.307Z,12.65
2018-12-03T02:10:25.474Z,12.57
2018-12-03T02:11:25.652Z,12.64
2018-12-03T02:12:25.828Z,12.58
2018-12-03T02:13:26.005Z,12.47
2018-12-03T02:14:26.179Z,12.60
2018-12-03T02:15:26.349Z,12.50
2018-12-03T02:16:26.524Z,12.60
2018-12-03T02:17:26.704Z,12.57
2018-12-03T02:18:26.878Z,12.55
2018-12-03T02:19:27.051Z,12.50
2018-12-03T02:20:27.241Z,12.50
2018-12-03T02:21:27.401Z,12.55
2018-12-03T02:22:27.577Z,12.55
2018-12-03T02:23:27.754Z,12.62
2018-12-03T02:24:27.931Z,12.55
2018-12-03T02:25:28.106Z,12.53
2018-12-03T02:26:28.283Z,12.47
2018-12-03T02:27:28.457Z,12.53
2018-12-03T02:28:28.633Z,12.43
2018-12-03T02:29:28.807Z,12.55
2018-12-03T02:30:28.987Z,12.57
2018-12-03T02:31:29.162Z,12.47
2018-12-03T02:32:29.333Z,12.54
2018-12-03T02:33:29.525Z,12.61
2018-12-03T02:34:29.688Z,12.61
2018-12-03T02:35:29.862Z,12.57
2018-12-03T02:36:30.034Z,12.55
2018-12-03T02:37:30.219Z,12.60
2018-12-03T02:38:30.394Z,12.62
2018-12-03T02:39:30.570Z,12.62
2018-12-03T02:40:30.750Z,12.62
2018-12-03T02:41:30.926Z,12.65
2018-12-03T02:42:31.103Z,12.67
2018-12-03T02:43:31.278Z,12.67
2018-12-03T02:44:31.460Z,12.65
2018-12-03T02:45:31.632Z,12.67
2018-12-03T02:46:31.807Z,12.58
2018-12-03T02:47:31.989Z,12.72
2018-12-03T02:48:32.165Z,12.67
2018-12-03T02:49:32.336Z,12.70
2018-12-03T02:50:32.513Z,12.80
2018-12-03T02:51:32.693Z,12.78
2018-12-03T02:52:32.876Z,12.72
2018-12-03T02:53:33.053Z,12.72
2018-12-03T02:54:33.224Z,12.70
2018-12-03T02:55:33.403Z,12.83
2018-12-03T02:56:33.574Z,12.79
2018-12-03T02:57:33.752Z,12.87
2018-12-03T02:58:33.936Z,12.79
2018-12-03T02:59:34.104Z,12.83
2018-12-03T03:00:34.381Z,12.80
2018-12-03T03:01:34.473Z,12.78
2018-12-03T03:02:34.632Z,12.73
2018-12-03T03:03:34.807Z,12.73
2018-12-03T03:04:34.991Z,12.68
2018-12-03T03:05:35.163Z,12.72
2018-12-03T03:06:35.343Z,12.67
2018-12-03T03:07:35.532Z,12.75
2018-12-03T03:08:35.697Z,12.73
2018-12-03T03:09:35.886Z,12.64
2018-12-03T03:10:36.060Z,12.64
2018-12-03T03:11:36.238Z,12.73
2018-12-03T03:12:36.425Z,12.76
2018-12-03T03:13:36.592Z,12.75
2018-12-03T03:14:36.768Z,12.83
2018-12-03T03:15:36.954Z,12.73
2018-12-03T03:16:37.130Z,12.79
2018-12-03T03:17:37.305Z,12.80
2018-12-03T03:18:37.487Z,12.78
2018-12-03T03:19:37.677Z,12.76
2018-12-03T03:20:37.843Z,12.79
2018-12-03T03:21:38.028Z,12.62
2018-12-03T03:22:38.193Z,12.67
2018-12-03T03:23:38.369Z,12.58
2018-12-03T03:24:38.557Z,12.73
2018-12-03T03:25:38.735Z,12.65
2018-12-03T03:26:38.908Z,12.67
2018-12-03T03:27:39.097Z,12.62
2018-12-03T03:28:39.266Z,12.67
2018-12-03T03:29:39.433Z,12.68
2018-12-03T03:30:39.617Z,12.67
2018-12-03T03:31:39.797Z,12.64
2018-12-03T03:32:39.989Z,12.75
2018-12-03T03:33:40.156Z,12.65
2018-12-03T03:34:40.327Z,12.70
2018-12-03T03:35:40.503Z,12.82
2018-12-03T03:36:40.687Z,12.70
2018-12-03T03:37:40.850Z,12.76
2018-12-03T03:38:41.029Z,12.82
2018-12-03T03:39:41.223Z,12.86
2018-12-03T03:40:41.393Z,12.76
2018-12-03T03:41:41.576Z,12.70
2018-12-03T03:42:41.753Z,12.70
2018-12-03T03:43:41.938Z,12.64
2018-12-03T03:44:42.115Z,12.65
2018-12-03T03:45:42.294Z,12.65
2018-12-03T03:46:42.483Z,12.67
2018-12-03T03:47:42.649Z,12.64
2018-12-03T03:48:42.815Z,12.60
2018-12-03T03:49:42.999Z,12.60
2018-12-03T03:50:43.177Z,12.64
2018-12-03T03:51:43.353Z,12.61
2018-12-03T03:52:43.515Z,12.67
2018-12-03T03:53:43.739Z,12.61
2018-12-03T03:54:43.871Z,12.62
2018-12-03T03:55:44.042Z,12.64
2018-12-03T03:56:44.215Z,12.67
2018-12-03T03:57:44.392Z,12.65
2018-12-03T03:58:44.562Z,12.68
2018-12-03T03:59:44.742Z,12.58
2018-12-03T04:00:44.914Z,12.57
2018-12-03T04:01:45.096Z,12.53
2018-12-03T04:02:45.280Z,12.49
2018-12-03T04:03:45.447Z,12.55
2018-12-03T04:04:45.628Z,12.47
2018-12-03T04:05:45.800Z,12.55
2018-12-03T04:06:45.977Z,12.53
2018-12-03T04:07:46.159Z,12.46
2018-12-03T04:08:46.332Z,12.42
2018-12-03T04:09:46.510Z,12.45
2018-12-03T04:10:46.687Z,12.35
2018-12-03T04:11:46.864Z,12.42
2018-12-03T04:12:47.040Z,12.40
2018-12-03T04:13:47.216Z,12.37
2018-12-03T04:14:47.389Z,12.36
2018-12-03T04:15:47.567Z,12.29
2018-12-03T04:16:47.744Z,12.37
2018-12-03T04:17:47.930Z,12.37
2018-12-03T04:18:48.099Z,12.36
2018-12-03T04:19:48.275Z,12.39
2018-12-03T04:20:48.457Z,12.36
2018-12-03T04:21:48.633Z,12.32
2018-12-03T04:22:48.808Z,12.32
2018-12-03T04:23:48.985Z,12.31
2018-12-03T04:24:49.167Z,12.29
2018-12-03T04:25:49.352Z,12.28
2018-12-03T04:26:49.531Z,12.40
2018-12-03T04:27:49.694Z,12.43
2018-12-03T04:28:49.882Z,12.36
2018-12-03T04:29:50.042Z,12.36
2018-12-03T04:30:50.216Z,12.40
2018-12-03T04:31:50.392Z,12.40
2018-12-03T04:32:50.567Z,12.45
2018-12-03T04:33:50.744Z,12.46
2018-12-03T04:34:50.928Z,12.43
2018-12-03T04:35:51.101Z,12.49
2018-12-03T04:36:51.283Z,12.45
2018-12-03T04:37:51.452Z,12.45
2018-12-03T04:38:51.630Z,12.55
2018-12-03T04:39:51.811Z,12.55
2018-12-03T04:40:51.979Z,12.57
2018-12-03T04:41:52.161Z,12.49
2018-12-03T04:42:52.340Z,12.68
2018-12-03T04:43:52.510Z,12.68
2018-12-03T04:44:52.690Z,12.60
2018-12-03T04:45:52.861Z,12.64
2018-12-03T04:46:53.039Z,12.62
2018-12-03T04:47:53.220Z,12.67
2018-12-03T04:48:53.387Z,12.65
2018-12-03T04:49:53.566Z,12.53
2018-12-03T04:50:53.750Z,12.55
2018-12-03T04:51:53.918Z,12.53
2018-12-03T04:52:54.097Z,12.54
2018-12-03T04:53:54.272Z,12.53
2018-12-03T04:54:54.449Z,12.47
2018-12-03T04:55:54.630Z,12.45
2018-12-03T04:56:54.803Z,12.50
2018-12-03T04:57:54.978Z,12.40
2018-12-03T04:58:55.154Z,12.32
2018-12-03T04:59:55.334Z,12.43
2018-12-03T05:00:55.522Z,12.45
2018-12-03T05:01:55.685Z,12.45
2018-12-03T05:02:55.869Z,12.39
2018-12-03T05:03:56.038Z,12.43
2018-12-03T05:04:56.221Z,12.43
2018-12-03T05:05:56.389Z,12.46
2018-12-03T05:06:56.567Z,12.42
2018-12-03T05:07:56.741Z,12.42
2018-12-03T05:08:56.930Z,12.45
2018-12-03T05:09:57.099Z,12.43
2018-12-03T05:10:57.276Z,12.40
2018-12-03T05:11:57.453Z,12.40
2018-12-03T05:12:57.629Z,12.32
2018-12-03T05:13:57.810Z,12.43
2018-12-03T05:14:57.980Z,12.29
2018-12-03T05:15:58.154Z,12.32
2018-12-03T05:16:58.333Z,12.39
2018-12-03T05:17:58.496Z,12.42
2018-12-03T05:18:58.681Z,12.42
2018-12-03T05:19:58.857Z,12.45
2018-12-03T05:20:59.034Z,12.43
2018-12-03T05:21:59.212Z,12.47
2018-12-03T05:22:59.387Z,12.46
2018-12-03T05:24:04.307Z,12.47
2018-12-03T05:24:59.737Z,12.47
2018-12-03T05:25:59.915Z,12.53
2018-12-03T05:27:00.094Z,12.62
2018-12-03T05:28:00.267Z,12.45
2018-12-03T05:29:00.444Z,12.47
2018-12-03T05:30:00.620Z,12.65
2018-12-03T05:31:00.801Z,12.45
2018-12-03T05:32:00.977Z,12.53
2018-12-03T05:33:01.161Z,12.47
2018-12-03T05:34:01.328Z,12.49
2018-12-03T05:35:01.507Z,12.47
2018-12-03T05:36:01.691Z,12.46
2018-12-03T05:37:01.856Z,12.53
2018-12-03T05:38:02.038Z,12.57
2018-12-03T05:39:02.205Z,12.60
2018-12-03T05:40:02.380Z,12.53
2018-12-03T05:41:02.557Z,12.54
2018-12-03T05:42:02.735Z,12.50
2018-12-03T05:43:02.912Z,12.49
2018-12-03T05:44:03.094Z,12.49
2018-12-03T05:45:03.262Z,12.42
2018-12-03T05:46:03.442Z,12.45
2018-12-03T05:47:03.623Z,12.50
2018-12-03T05:48:03.796Z,12.47
2018-12-03T05:49:03.980Z,12.49
2018-12-03T05:50:04.147Z,12.55
2018-12-03T05:51:04.321Z,12.46
2018-12-03T05:52:04.493Z,12.49
2018-12-03T05:53:04.669Z,12.57
2018-12-03T05:54:04.845Z,12.42
2018-12-03T05:55:05.023Z,12.39
2018-12-03T05:56:05.202Z,12.45
2018-12-03T05:57:05.374Z,12.39
2018-12-03T05:58:05.554Z,12.39
2018-12-03T05:59:05.728Z,12.47
2018-12-03T06:00:05.915Z,12.42
2018-12-03T06:01:06.084Z,12.42
2018-12-03T06:02:06.268Z,12.43
2018-12-03T06:03:06.437Z,12.42
2018-12-03T06:04:06.615Z,12.46
2018-12-03T06:05:06.796Z,12.42
2018-12-03T06:06:06.971Z,12.49
2018-12-03T06:07:07.145Z,12.55
2018-12-03T06:08:07.327Z,12.54
2018-12-03T06:09:07.502Z,12.53
2018-12-03T06:10:07.677Z,12.49
2018-12-03T06:11:07.855Z,12.47
2018-12-03T06:12:08.038Z,12.55
2018-12-03T06:13:08.213Z,12.58
2018-12-03T06:14:08.388Z,12.55
2018-12-03T06:15:08.567Z,12.54
2018-12-03T06:16:08.735Z,12.67
2018-12-03T06:17:08.919Z,12.64
2018-12-03T06:18:09.118Z,12.65
2018-12-03T06:19:09.268Z,12.67
2018-12-03T06:20:09.443Z,12.61
2018-12-03T06:21:09.620Z,12.67
2018-12-03T06:22:09.795Z,12.75
2018-12-03T06:23:09.972Z,12.73
2018-12-03T06:24:10.148Z,12.70
2018-12-03T06:25:10.327Z,12.73
2018-12-03T06:26:10.505Z,12.68
2018-12-03T06:27:10.679Z,12.76
2018-12-03T06:28:10.879Z,12.67
2018-12-03T06:29:11.038Z,12.79
2018-12-03T06:30:11.215Z,12.79
2018-12-03T06:31:11.385Z,12.79
2018-12-03T06:32:11.559Z,12.78
2018-12-03T06:33:11.736Z,12.87
2018-12-03T06:34:11.910Z,12.94
2018-12-03T06:35:12.083Z,12.90
2018-12-03T06:36:12.254Z,12.91
2018-12-03T06:37:12.437Z,12.87
2018-12-03T06:38:15.349Z,13.01
2018-12-03T06:39:12.810Z,12.98
2018-12-03T06:40:12.966Z,12.93
2018-12-03T06:41:13.140Z,12.91
2018-12-03T06:42:13.317Z,12.91
2018-12-03T06:43:13.489Z,12.90
2018-12-03T06:44:13.667Z,12.79
2018-12-03T06:45:13.823Z,12.78
2018-12-03T06:46:14.005Z,12.93
2018-12-03T06:47:14.179Z,12.82
2018-12-03T06:48:14.356Z,12.85
2018-12-03T06:49:14.542Z,12.76
2018-12-03T06:50:14.711Z,12.80
2018-12-03T06:51:14.890Z,12.78
2018-12-03T06:52:15.070Z,12.79
2018-12-03T06:53:15.237Z,12.83
2018-12-03T06:54:15.415Z,12.79
2018-12-03T06:55:15.584Z,12.78
2018-12-03T06:56:15.767Z,12.83
2018-12-03T06:57:15.954Z,12.87
2018-12-03T06:58:16.118Z,12.86
2018-12-03T06:59:16.291Z,12.91
2018-12-03T07:00:16.468Z,12.98
2018-12-03T07:01:16.642Z,12.98
2018-12-03T07:02:16.820Z,13.04
2018-12-03T07:03:16.994Z,13.01
2018-12-03T07:04:17.169Z,13.03
2018-12-03T07:05:17.355Z,13.01
2018-12-03T07:06:17.526Z,13.03
2018-12-03T07:07:17.703Z,13.01
2018-12-03T07:08:17.872Z,13.11
2018-12-03T07:09:18.055Z,13.03
2018-12-03T07:10:18.228Z,13.08
2018-12-03T07:11:18.397Z,13.05
2018-12-03T07:12:18.591Z,13.22
2018-12-03T07:13:18.752Z,13.09
2018-12-03T07:14:18.930Z,13.20
2018-12-03T07:15:19.107Z,13.19
2018-12-03T07:16:19.282Z,13.18
2018-12-03T07:17:19.461Z,13.16
2018-12-03T07:18:19.653Z,13.30
2018-12-03T07:19:19.798Z,13.23
2018-12-03T07:20:19.970Z,13.18
2018-12-03T07:21:20.151Z,13.08
2018-12-03T07:22:20.321Z,13.20
2018-12-03T07:23:20.498Z,13.20
2018-12-03T07:24:20.673Z,13.16
2018-12-03T07:25:20.850Z,13.15
2018-12-03T07:26:21.026Z,13.23
2018-12-03T07:27:21.209Z,13.35
2018-12-03T07:28:21.394Z,13.19
2018-12-03T07:29:21.563Z,13.16
2018-12-03T07:30:21.734Z,13.16
2018-12-03T07:31:21.907Z,13.11
2018-12-03T07:32:22.085Z,13.09
2018-12-03T07:33:22.259Z,13.04
2018-12-03T07:34:22.436Z,13.03
2018-12-03T07:35:22.604Z,13.01
2018-12-03T07:36:22.792Z,13.11
2018-12-03T07:37:22.961Z,13.04
2018-12-03T07:38:23.141Z,13.09
2018-12-03T07:39:23.318Z,12.97
2018-12-03T07:40:23.494Z,12.95
2018-12-03T07:41:23.692Z,12.98
2018-12-03T07:42:23.848Z,12.98
2018-12-03T07:43:24.022Z,13.03
2018-12-03T07:44:24.198Z,13.00
2018-12-03T07:45:24.374Z,12.98
2018-12-03T07:46:24.549Z,12.97
2018-12-03T07:47:24.739Z,12.98
2018-12-03T07:48:24.895Z,12.94
2018-12-03T07:49:25.073Z,12.93
2018-12-03T07:50:25.249Z,12.94
2018-12-03T07:51:25.427Z,12.93
2018-12-03T07:52:25.602Z,12.86
2018-12-03T07:53:25.779Z,12.95
2018-12-03T07:54:25.959Z,12.95
2018-12-03T07:55:26.133Z,12.91
2018-12-03T07:56:26.314Z,12.82
2018-12-03T07:57:26.493Z,12.83
2018-12-03T07:58:26.668Z,12.85
2018-12-03T07:59:26.847Z,12.82
2018-12-03T08:00:27.022Z,12.87
2018-12-03T08:01:27.197Z,12.87
2018-12-03T08:02:27.374Z,12.85
2018-12-03T08:03:27.556Z,12.80
2018-12-03T08:04:27.729Z,12.78
2018-12-03T08:05:27.906Z,12.85
2018-12-03T08:06:28.079Z,12.91
2018-12-03T08:07:28.260Z,12.91
2018-12-03T08:08:28.435Z,12.91
2018-12-03T08:09:28.626Z,12.90
2018-12-03T08:10:28.788Z,12.94
2018-12-03T08:11:28.964Z,12.91
2018-12-03T08:12:29.148Z,12.85
2018-12-03T08:13:29.321Z,12.85
2018-12-03T08:14:29.497Z,12.95
2018-12-03T08:15:29.672Z,12.91
2018-12-03T08:16:29.842Z,12.93
2018-12-03T08:17:30.024Z,12.93
2018-12-03T08:18:30.203Z,12.90
2018-12-03T08:19:30.402Z,12.94
2018-12-03T08:20:30.548Z,12.90
2018-12-03T08:21:30.720Z,12.87
2018-12-03T08:22:30.892Z,12.86
2018-12-03T08:23:31.070Z,12.86
2018-12-03T08:24:31.246Z,12.93
2018-12-03T08:25:31.421Z,12.93
2018-12-03T08:26:31.598Z,12.91
2018-12-03T08:27:31.785Z,12.87
2018-12-03T08:28:31.965Z,12.87
2018-12-03T08:29:32.131Z,12.90
2018-12-03T08:30:32.292Z,12.91
2018-12-03T08:31:32.467Z,12.95
2018-12-03T08:32:32.646Z,12.94
2018-12-03T08:33:32.818Z,13.03
2018-12-03T08:34:32.997Z,12.98
2018-12-03T08:35:33.168Z,13.01
2018-12-03T08:36:33.342Z,12.97
2018-12-03T08:37:33.520Z,12.97
2018-12-03T08:38:33.698Z,12.97
2018-12-03T08:39:33.873Z,12.91
2018-12-03T08:40:34.050Z,13.01
2018-12-03T08:41:34.224Z,12.93
2018-12-03T08:42:34.402Z,13.00
2018-12-03T08:43:34.580Z,13.00
2018-12-03T08:44:34.758Z,13.01
2018-12-03T08:45:34.935Z,13.05
2018-12-03T08:46:35.115Z,13.01
2018-12-03T08:47:35.302Z,12.93
2018-12-03T08:48:35.472Z,12.93
2018-12-03T08:49:35.653Z,13.01
2018-12-03T08:50:35.839Z,12.91
2018-12-03T08:51:35.998Z,12.85
2018-12-03T08:52:36.176Z,12.86
2018-12-03T08:53:36.356Z,12.93
2018-12-03T08:54:36.558Z,12.97
2018-12-03T08:55:36.698Z,12.98
2018-12-03T08:56:36.878Z,13.01
2018-12-03T08:57:37.055Z,13.00
2018-12-03T08:58:37.231Z,13.01
2018-12-03T08:59:37.410Z,13.01
2018-12-03T09:00:37.587Z,12.86
2018-12-03T09:01:37.760Z,12.90
2018-12-03T09:02:37.937Z,12.98
2018-12-03T09:03:38.112Z,12.87
2018-12-03T09:04:38.300Z,12.85
2018-12-03T09:05:38.867Z,12.86
2018-12-03T09:06:38.674Z,12.98
2018-12-03T09:07:38.832Z,12.95
2018-12-03T09:08:39.028Z,12.98
2018-12-03T09:09:39.175Z,13.00
2018-12-03T09:10:39.353Z,13.08
2018-12-03T09:11:39.530Z,13.08
2018-12-03T09:12:39.706Z,13.15
2018-12-03T09:13:39.882Z,13.19
2018-12-03T09:14:40.060Z,13.25
2018-12-03T09:15:40.239Z,13.37
2018-12-03T09:16:40.413Z,13.44
2018-12-03T09:17:40.592Z,13.50
2018-12-03T09:18:40.784Z,13.46
2018-12-03T09:19:40.948Z,13.46
2018-12-03T09:20:41.123Z,13.47
2018-12-03T09:21:41.301Z,13.46
2018-12-03T09:22:41.474Z,13.38
2018-12-03T09:23:41.647Z,13.23
2018-12-03T09:24:41.831Z,13.25
2018-12-03T09:25:42.006Z,13.42
2018-12-03T09:26:42.186Z,13.42
2018-12-03T09:27:42.363Z,13.37
2018-12-03T09:28:42.568Z,13.42
2018-12-03T09:29:42.715Z,13.38
2018-12-03T09:30:42.896Z,13.42
2018-12-03T09:31:43.072Z,13.47
2018-12-03T09:32:43.254Z,13.47
2018-12-03T09:33:43.453Z,13.49
2018-12-03T09:34:43.609Z,13.52
2018-12-03T09:35:43.797Z,13.54
2018-12-03T09:36:43.950Z,13.57
2018-12-03T09:37:44.136Z,13.60
2018-12-03T09:38:44.325Z,13.67
2018-12-03T09:39:44.473Z,13.70
2018-12-03T09:40:44.658Z,13.54
2018-12-03T09:41:44.828Z,13.59
2018-12-03T09:42:45.003Z,13.65
2018-12-03T09:43:45.186Z,13.70
2018-12-03T09:44:45.368Z,13.62
2018-12-03T09:45:45.534Z,13.63
2018-12-03T09:46:45.712Z,13.57
2018-12-03T09:47:45.904Z,13.59
2018-12-03T09:48:46.064Z,13.60
2018-12-03T09:49:46.256Z,13.59
2018-12-03T09:50:46.405Z,13.57
2018-12-03T09:51:46.587Z,13.47
2018-12-03T09:52:46.777Z,13.44
2018-12-03T09:53:46.936Z,13.46
2018-12-03T09:54:47.118Z,13.44
2018-12-03T09:55:47.278Z,13.42
2018-12-03T09:56:47.467Z,13.38
2018-12-03T09:57:47.641Z,13.47
2018-12-03T09:58:47.813Z,13.44
2018-12-03T09:59:47.987Z,13.41
2018-12-03T10:00:50.869Z,13.38
2018-12-03T10:01:48.317Z,13.41
2018-12-03T10:02:48.465Z,13.46
2018-12-03T10:03:48.640Z,13.44
2018-12-03T10:04:48.820Z,13.44
2018-12-03T10:05:48.996Z,13.50
2018-12-03T10:06:49.183Z,13.46
2018-12-03T10:07:49.383Z,13.52
2018-12-03T10:08:49.509Z,13.57
2018-12-03T10:09:49.693Z,13.54
2018-12-03T10:10:49.874Z,13.59
2018-12-03T10:11:50.048Z,13.53
2018-12-03T10:12:50.231Z,13.57
2018-12-03T10:13:50.395Z,13.56
2018-12-03T10:14:50.575Z,13.70
2018-12-03T10:15:50.757Z,13.72
2018-12-03T10:16:50.927Z,13.75
2018-12-03T10:17:51.106Z,13.83
2018-12-03T10:18:51.293Z,13.77
2018-12-03T10:19:51.482Z,13.89
2018-12-03T10:20:51.658Z,13.83
2018-12-03T10:21:51.868Z,13.77
2018-12-03T10:22:52.014Z,13.86
2018-12-03T10:23:52.196Z,13.85
2018-12-03T10:24:52.375Z,13.74
2018-12-03T10:25:52.545Z,13.86
2018-12-03T10:26:52.727Z,13.97
2018-12-03T10:27:52.898Z,13.96
2018-12-03T10:28:54.090Z,13.96
2018-12-03T10:29:53.284Z,14.03
2018-12-03T10:30:53.465Z,14.14
2018-12-03T10:31:53.641Z,14.07
2018-12-03T10:32:53.826Z,14.05
2018-12-03T10:33:53.996Z,14.05
2018-12-03T10:34:54.174Z,14.03
2018-12-03T10:35:54.389Z,13.99
2018-12-03T10:36:54.524Z,13.97
2018-12-03T10:37:54.714Z,13.74
2018-12-03T10:38:54.881Z,13.72
2018-12-03T10:39:55.062Z,13.74
2018-12-03T10:40:55.235Z,13.79
2018-12-03T10:41:55.413Z,13.70
2018-12-03T10:42:55.593Z,13.74
2018-12-03T10:43:55.770Z,13.70
2018-12-03T10:44:55.944Z,13.63
2018-12-03T10:45:56.128Z,13.63
2018-12-03T10:46:56.312Z,13.72
2018-12-03T10:47:56.474Z,13.70
2018-12-03T10:48:56.660Z,13.71
2018-12-03T10:49:56.829Z,13.68
2018-12-03T10:50:57.013Z,13.65
2018-12-03T10:51:57.186Z,13.63
2018-12-03T10:52:57.363Z,13.67
2018-12-03T10:53:57.549Z,13.63
2018-12-03T10:54:57.726Z,13.59
2018-12-03T10:55:57.903Z,13.79
2018-12-03T10:56:58.081Z,13.75
2018-12-03T10:57:58.255Z,13.78
2018-12-03T10:58:58.442Z,13.68
2018-12-03T10:59:58.618Z,13.70
2018-12-03T11:00:58.798Z,13.72
2018-12-03T11:01:58.967Z,13.77
2018-12-03T11:02:59.165Z,13.75
2018-12-03T11:03:59.341Z,13.83
2018-12-03T11:04:59.521Z,13.86
2018-12-03T11:05:59.723Z,13.85
2018-12-03T11:06:59.881Z,13.93
2018-12-03T11:08:00.055Z,13.87
2018-12-03T11:09:00.234Z,13.86
2018-12-03T11:10:00.409Z,13.87
2018-12-03T11:11:00.590Z,13.93
2018-12-03T11:12:00.761Z,13.96
2018-12-03T11:13:00.920Z,13.89
2018-12-03T11:14:01.104Z,13.97
2018-12-03T11:15:01.303Z,13.85
2018-12-03T11:16:02.496Z,13.87
2018-12-03T11:17:01.650Z,13.83
2018-12-03T11:18:01.819Z,13.87
2018-12-03T11:19:02.000Z,13.87
2018-12-03T11:20:02.155Z,13.89
2018-12-03T11:21:02.330Z,13.93
2018-12-03T11:22:02.549Z,13.96
2018-12-03T11:23:02.721Z,14.10
2018-12-03T11:24:02.901Z,14.63
2018-12-03T11:25:03.106Z,14.89
2018-12-03T11:26:03.261Z,14.69
2018-12-03T11:27:03.442Z,14.65
2018-12-03T11:28:03.622Z,14.53
2018-12-03T11:29:03.795Z,14.26
2018-12-03T11:30:03.979Z,14.29
2018-12-03T11:31:04.148Z,14.33
2018-12-03T11:32:04.355Z,14.30
2018-12-03T11:33:04.533Z,14.23
2018-12-03T11:34:04.695Z,14.03
2018-12-03T11:35:05.963Z,13.92
2018-12-03T11:36:05.064Z,13.86
2018-12-03T11:37:05.257Z,13.86
2018-12-03T11:38:05.408Z,13.81
2018-12-03T11:39:05.586Z,13.87
2018-12-03T11:40:05.791Z,13.83
2018-12-03T11:41:05.954Z,13.89
2018-12-03T11:42:06.341Z,13.96
2018-12-03T11:43:06.295Z,13.81
2018-12-03T11:44:06.567Z,13.85
2018-12-03T11:45:06.698Z,13.87
2018-12-03T11:46:07.013Z,13.81
2018-12-03T11:47:07.102Z,13.70
2018-12-03T11:48:07.244Z,13.78
2018-12-03T11:49:07.418Z,13.89
2018-12-03T11:50:07.609Z,13.92
2018-12-03T11:51:07.797Z,13.97
2018-12-03T11:52:07.960Z,14.04
2018-12-03T11:53:08.137Z,13.99
2018-12-03T11:54:08.311Z,13.99
2018-12-03T11:55:08.488Z,14.07
2018-12-03T11:56:08.667Z,14.07
2018-12-03T11:57:08.844Z,14.12
2018-12-03T11:58:09.020Z,14.30
2018-12-03T11:59:09.191Z,14.28
2018-12-03T12:00:09.371Z,14.35
2018-12-03T12:01:09.547Z,14.35
2018-12-03T12:02:09.745Z,14.40
2018-12-03T12:03:09.907Z,14.43
2018-12-03T12:04:10.084Z,14.41
2018-12-03T12:05:10.283Z,14.36
2018-12-03T12:06:10.440Z,14.53
2018-12-03T12:07:10.621Z,14.48
2018-12-03T12:08:10.797Z,14.51
2018-12-03T12:09:11.047Z,14.51
2018-12-03T12:10:11.147Z,14.47
2018-12-03T12:11:11.331Z,14.40
2018-12-03T12:12:11.502Z,14.32
2018-12-03T12:13:11.686Z,14.36
2018-12-03T12:14:11.849Z,14.29
2018-12-03T12:15:12.033Z,14.30
2018-12-03T12:16:12.212Z,14.37
2018-12-03T12:17:12.410Z,14.26
2018-12-03T12:18:12.585Z,14.18
2018-12-03T12:19:12.764Z,14.29
2018-12-03T12:20:12.940Z,14.29
2018-12-03T12:21:13.120Z,14.17
2018-12-03T12:22:13.330Z,14.37
2018-12-03T12:23:13.495Z,14.32
2018-12-03T12:24:13.675Z,14.29
2018-12-03T12:25:13.851Z,14.18
2018-12-03T12:26:14.037Z,14.22
2018-12-03T12:27:14.205Z,14.22
2018-12-03T12:28:14.391Z,14.18
2018-12-03T12:29:14.559Z,14.17
2018-12-03T12:30:14.737Z,14.23
2018-12-03T12:31:14.926Z,14.23
2018-12-03T12:32:15.099Z,14.18
2018-12-03T12:33:15.275Z,14.28
2018-12-03T12:34:15.455Z,14.18
2018-12-03T12:35:15.642Z,14.20
2018-12-03T12:36:15.816Z,14.25
2018-12-03T12:37:16.000Z,14.14
2018-12-03T12:38:16.165Z,14.22
2018-12-03T12:39:16.343Z,14.23
2018-12-03T12:40:16.522Z,14.11
2018-12-03T12:41:16.685Z,14.17
2018-12-03T12:42:16.862Z,13.97
2018-12-03T12:43:17.043Z,14.15
2018-12-03T12:44:17.219Z,14.12
2018-12-03T12:45:17.400Z,14.10
2018-12-03T12:46:17.591Z,13.97
2018-12-03T12:47:17.773Z,13.87
2018-12-03T12:48:17.954Z,13.79
2018-12-03T12:49:18.119Z,13.83
2018-12-03T12:50:18.292Z,13.65
2018-12-03T12:51:18.473Z,13.71
2018-12-03T12:52:18.656Z,13.60
2018-12-03T12:53:18.824Z,13.59
2018-12-03T12:54:19.002Z,13.57
2018-12-03T12:55:19.189Z,13.67
2018-12-03T12:56:19.358Z,13.79